Time;durP1;ratioP1;P1;durP2;ratioP2;P2;SDS_P1;SDS_P2;PMS_P1;PMS_P2;Temp;Humidity;BMP_temperature;BMP_pressure;BME280_temperature;BME280_humidity;BME280_pressure;Samples;Min_cycle;Max_cycle;Signal;HPM_P1;HPM_P2
2022/07/01 00:01:36;;;;;;;10.55;1.92;;;15.30;99.90;;;;;;5017045;28;20046;-79
2022/07/01 00:04:03;;;;;;;7.88;1.88;;;15.40;99.90;;;;;;5017817;28;20069;-77
2022/07/01 00:06:29;;;;;;;7.07;1.60;;;15.50;99.90;;;;;;4998602;28;20046;-81
2022/07/01 00:08:55;;;;;;;6.55;1.75;;;15.70;99.90;;;;;;5016572;28;20052;-80
2022/07/01 00:11:21;;;;;;;6.85;1.52;;;15.30;99.90;;;;;;5016200;28;20351;-80
2022/07/01 00:13:47;;;;;;;10.20;1.45;;;15.40;99.90;;;;;;4997322;28;20054;-80
2022/07/01 00:16:12;;;;;;;7.30;1.17;;;15.20;99.90;;;;;;4997345;28;20528;-81
2022/07/01 00:18:38;;;;;;;6.32;1.13;;;15.20;99.90;;;;;;4997329;28;20132;-81
2022/07/01 00:21:04;;;;;;;5.53;1.20;;;15.20;99.90;;;;;;4996898;28;20462;-78
2022/07/01 00:23:36;;;;;;;3.92;0.90;;;15.30;99.90;;;;;;4996575;28;20148;-82
2022/07/01 00:26:02;;;;;;;5.07;0.90;;;15.30;99.90;;;;;;5014418;28;20042;-79
2022/07/01 00:28:27;;;;;;;5.20;0.70;;;15.30;99.90;;;;;;5014282;28;20232;-78
2022/07/01 00:30:53;;;;;;;6.38;0.90;;;15.40;99.90;;;;;;5014215;28;20407;-80
2022/07/01 00:33:19;;;;;;;2.65;0.90;;;15.40;99.90;;;;;;4996758;28;20179;-80
2022/07/01 00:35:45;;;;;;;4.75;0.80;;;15.40;99.90;;;;;;5014430;28;20139;-81
2022/07/01 00:38:10;;;;;;;6.22;1.38;;;15.10;99.90;;;;;;5016409;28;20450;-80
2022/07/01 00:40:36;;;;;;;5.47;1.08;;;15.40;99.90;;;;;;5002073;28;20132;-81
2022/07/01 00:43:03;;;;;;;3.65;0.80;;;15.30;99.90;;;;;;5013607;28;20057;-79
2022/07/01 00:45:29;;;;;;;4.30;0.80;;;15.10;99.90;;;;;;5025058;28;20092;-80
2022/07/01 00:47:55;;;;;;;3.67;0.65;;;15.30;99.90;;;;;;5016887;28;20046;-79
2022/07/01 00:50:21;;;;;;;2.08;0.52;;;15.20;99.90;;;;;;4997281;28;20049;-81
2022/07/01 00:52:47;;;;;;;4.90;0.80;;;14.90;99.90;;;;;;4996848;28;20137;-78
2022/07/01 00:55:14;;;;;;;3.78;0.80;;;14.80;99.90;;;;;;4997079;28;20064;-82
2022/07/01 00:57:41;;;;;;;3.65;0.90;;;14.90;99.90;;;;;;4996434;28;20049;-80
2022/07/01 01:00:13;;;;;;;5.40;1.20;;;15.10;99.90;;;;;;4996095;28;20169;-76
2022/07/01 01:02:39;;;;;;;5.05;1.35;;;15.10;99.90;;;;;;4996606;28;20401;-82
2022/07/01 01:05:07;;;;;;;7.38;2.05;;;14.90;99.90;;;;;;4980317;28;20097;-82
2022/07/01 01:07:33;;;;;;;6.65;2.28;;;15.00;99.90;;;;;;4995980;28;20046;-79
2022/07/01 01:10:01;;;;;;;7.88;3.35;;;14.90;99.90;;;;;;5013751;28;20156;-82
2022/07/01 01:12:27;;;;;;;10.50;3.97;;;14.80;99.90;;;;;;5013652;28;20042;-84
2022/07/01 01:14:55;;;;;;;19.00;6.25;;;15.20;99.90;;;;;;4996622;28;20192;-81
2022/07/01 01:17:24;;;;;;;35.78;14.75;;;15.10;99.90;;;;;;5013564;28;20437;-79
2022/07/01 01:19:53;;;;;;;55.38;19.75;;;15.20;99.90;;;;;;5013822;28;20133;-81
2022/07/01 01:22:19;;;;;;;59.50;22.52;;;15.30;99.90;;;;;;5013716;28;20045;-79
2022/07/01 01:24:47;;;;;;;71.15;26.10;;;15.10;99.90;;;;;;5013905;28;20143;-78
2022/07/01 01:27:13;;;;;;;68.30;26.92;;;15.30;99.90;;;;;;4996606;28;20050;-80
2022/07/01 01:29:40;;;;;;;69.03;26.02;;;15.30;99.90;;;;;;4995654;28;20054;-78
2022/07/01 01:32:06;;;;;;;84.43;28.25;;;15.30;99.90;;;;;;5013185;28;20041;-80
2022/07/01 01:34:35;;;;;;;85.25;30.13;;;15.40;99.90;;;;;;4995753;28;20120;-81
2022/07/01 01:37:01;;;;;;;74.95;27.23;;;15.40;99.90;;;;;;5016720;28;20054;-81
2022/07/01 01:39:26;;;;;;;84.55;30.67;;;15.20;99.90;;;;;;4999532;28;20136;-79
2022/07/01 01:41:52;;;;;;;79.97;28.85;;;15.10;99.90;;;;;;5016642;28;20045;-80
2022/07/01 01:44:18;;;;;;;84.55;30.13;;;15.00;99.90;;;;;;5017185;28;20057;-80
2022/07/01 01:46:44;;;;;;;68.45;24.42;;;15.00;99.90;;;;;;4999924;28;20127;-80
2022/07/01 01:49:11;;;;;;;74.72;26.73;;;15.10;99.90;;;;;;5017754;28;20054;-80
2022/07/01 01:51:37;;;;;;;78.78;27.05;;;15.30;99.90;;;;;;5017310;28;20184;-79
2022/07/01 01:54:03;;;;;;;69.87;23.17;;;15.30;99.90;;;;;;5000224;28;20077;-83
2022/07/01 01:56:29;;;;;;;61.28;21.23;;;15.10;99.90;;;;;;4983410;28;20474;-79
2022/07/01 01:58:56;;;;;;;62.37;21.47;;;15.20;99.90;;;;;;4999987;28;20065;-79
2022/07/01 02:01:22;;;;;;;58.85;20.77;;;15.20;99.90;;;;;;5016708;28;20764;-81
2022/07/01 02:03:49;;;;;;;61.67;20.55;;;14.90;99.90;;;;;;4999393;28;20053;-81
2022/07/01 02:06:16;;;;;;;55.58;19.92;;;14.80;99.90;;;;;;4983070;28;20145;-76
2022/07/01 02:08:42;;;;;;;55.50;19.02;;;15.10;99.90;;;;;;5017336;28;20046;-82
2022/07/01 02:11:08;;;;;;;58.72;20.40;;;15.10;99.90;;;;;;5017037;28;20468;-79
2022/07/01 02:13:35;;;;;;;59.67;20.02;;;15.10;99.90;;;;;;4999223;28;20053;-81
2022/07/01 02:16:02;;;;;;;58.63;19.77;;;14.70;99.90;;;;;;4999208;28;20058;-81
2022/07/01 02:18:27;;;;;;;63.58;19.67;;;14.80;99.90;;;;;;4999181;28;20391;-80
2022/07/01 02:20:54;;;;;;;58.20;19.55;;;14.70;99.90;;;;;;5017782;28;20105;-79
2022/07/01 02:23:20;;;;;;;59.85;18.90;;;14.90;99.90;;;;;;4999665;28;20054;-81
2022/07/01 02:25:48;;;;;;;58.13;18.30;;;14.70;99.90;;;;;;5017031;28;20363;-80
2022/07/01 02:28:14;;;;;;;52.83;17.50;;;14.70;99.90;;;;;;5017949;28;20054;-81
2022/07/01 02:30:41;;;;;;;50.80;17.33;;;15.00;99.90;;;;;;5021098;28;20056;-80
2022/07/01 02:33:08;;;;;;;56.83;19.33;;;14.60;99.90;;;;;;5020779;28;20042;-82
2022/07/01 02:35:35;;;;;;;45.63;16.70;;;14.90;99.90;;;;;;5023857;28;20143;-84
2022/07/01 02:38:01;;;;;;;50.92;17.95;;;14.70;99.90;;;;;;5005605;28;20101;-81
2022/07/01 02:40:27;;;;;;;48.95;17.17;;;14.60;99.90;;;;;;5006052;28;20053;-82
2022/07/01 02:42:54;;;;;;;50.30;17.88;;;14.60;99.90;;;;;;5020774;28;20058;-78
2022/07/01 02:45:20;;;;;;;45.30;16.92;;;14.70;99.90;;;;;;5001838;28;20105;-78
2022/07/01 02:47:46;;;;;;;51.33;17.23;;;14.60;99.90;;;;;;5004449;28;20069;-80
2022/07/01 02:50:13;;;;;;;49.38;16.95;;;14.70;99.90;;;;;;5005447;28;20156;-80
2022/07/01 02:52:39;;;;;;;;;;;14.80;99.90;;;;;;5000744;28;20374;-79
2022/07/01 02:55:09;;;;;;;44.45;15.13;;;14.60;99.90;;;;;;4999373;28;19929;-80
2022/07/01 02:57:35;;;;;;;51.22;17.27;;;14.60;99.90;;;;;;5014960;28;20383;-76
2022/07/01 03:00:06;;;;;;;45.57;16.77;;;14.80;99.90;;;;;;5015149;28;20045;-76
2022/07/01 03:02:32;;;;;;;42.83;16.20;;;14.80;99.90;;;;;;5015732;28;20048;-75
2022/07/01 03:04:58;;;;;;;47.22;16.52;;;14.60;99.90;;;;;;5015380;28;20068;-76
2022/07/01 03:07:23;;;;;;;52.17;17.35;;;14.30;99.90;;;;;;5015548;28;20054;-78
2022/07/01 03:09:50;;;;;;;43.85;15.20;;;14.70;99.90;;;;;;5014437;28;20053;-78
2022/07/01 03:12:25;;;;;;;43.28;16.08;;;14.40;99.90;;;;;;5015271;28;20046;-78
2022/07/01 03:15:12;;;;;;;42.95;16.30;;;14.30;99.90;;;;;;5014976;28;20049;-76
2022/07/01 03:17:40;;;;;;;44.78;16.02;;;14.30;99.90;;;;;;4997021;28;20050;-77
2022/07/01 03:20:10;;;;;;;51.63;17.67;;;14.40;99.90;;;;;;5014665;28;20050;-77
2022/07/01 03:22:37;;;;;;;54.05;19.67;;;14.20;99.90;;;;;;4997864;28;20065;-80
2022/07/01 03:25:03;;;;;;;51.47;16.10;;;14.50;99.90;;;;;;5015734;28;20050;-75
2022/07/01 03:27:30;;;;;;;54.78;19.73;;;14.40;99.90;;;;;;5016197;28;20149;-74
2022/07/01 03:29:55;;;;;;;53.55;18.95;;;14.20;99.90;;;;;;4998689;28;20054;-76
2022/07/01 03:32:22;;;;;;;57.75;19.92;;;14.40;99.90;;;;;;5014771;28;20042;-76
2022/07/01 03:34:50;;;;;;;61.05;20.75;;;14.10;99.90;;;;;;4996915;28;20050;-76
2022/07/01 03:37:17;;;;;;;64.95;20.92;;;14.40;99.90;;;;;;5014351;28;20075;-77
2022/07/01 03:39:43;;;;;;;66.57;22.17;;;14.20;99.90;;;;;;5013868;28;20486;-75
2022/07/01 03:42:09;;;;;;;73.50;23.13;;;14.20;99.90;;;;;;5014071;28;20054;-76
2022/07/01 03:44:36;;;;;;;79.55;25.27;;;14.10;99.90;;;;;;5014883;28;20049;-76
2022/07/01 03:47:03;;;;;;;75.10;24.13;;;14.00;99.90;;;;;;4996865;28;20058;-76
2022/07/01 03:49:29;;;;;;;79.22;24.00;;;14.20;99.90;;;;;;4996874;28;20120;-76
2022/07/01 03:51:55;;;;;;;79.25;24.70;;;14.00;99.90;;;;;;5014593;28;20042;-77
2022/07/01 03:54:29;;;;;;;78.05;24.33;;;13.90;99.90;;;;;;5014162;28;20078;-76
2022/07/01 03:56:57;;;;;;;86.25;26.33;;;14.10;99.90;;;;;;5014611;28;20050;-77
2022/07/01 03:59:23;;;;;;;84.47;24.48;;;14.20;99.90;;;;;;4979284;28;20100;-78
2022/07/01 04:01:48;;;;;;;82.85;26.20;;;14.10;99.90;;;;;;4996433;28;20042;-75
2022/07/01 04:04:14;;;;;;;91.13;27.23;;;14.10;99.90;;;;;;4996729;28;20124;-77
2022/07/01 04:06:40;;;;;;;85.50;26.35;;;14.10;99.90;;;;;;4996356;28;20041;-76
2022/07/01 04:09:06;;;;;;;85.20;26.63;;;13.90;99.90;;;;;;4996448;28;20049;-76
2022/07/01 04:11:32;;;;;;;91.40;27.55;;;14.00;99.90;;;;;;4996255;28;20104;-77
2022/07/01 04:13:58;;;;;;;84.32;27.63;;;14.10;99.90;;;;;;5013668;28;20052;-73
2022/07/01 04:16:25;;;;;;;88.18;27.00;;;14.00;99.90;;;;;;5013855;28;20042;-75
2022/07/01 04:18:52;;;;;;;85.65;28.08;;;14.00;99.90;;;;;;4996087;28;20493;-75
2022/07/01 04:24:02;;;;;;;90.60;27.58;;;13.90;99.90;;;;;;4996302;28;20493;-76
2022/07/01 04:26:28;;;;;;;93.90;28.38;;;13.90;99.90;;;;;;5013501;28;20045;-76
2022/07/01 04:28:54;;;;;;;90.00;27.85;;;13.90;99.90;;;;;;4995301;28;20073;-75
2022/07/01 04:31:20;;;;;;;81.05;26.15;;;14.10;99.90;;;;;;5013368;28;20478;-77
2022/07/01 04:33:51;;;;;;;103.47;30.00;;;14.10;99.90;;;;;;5013253;28;20046;-78
2022/07/01 04:36:17;;;;;;;91.53;28.55;;;14.10;99.90;;;;;;5013302;28;20067;-76
2022/07/01 04:38:42;;;;;;;96.10;30.65;;;13.90;99.90;;;;;;5013544;28;20046;-77
2022/07/01 04:43:52;;;;;;;90.63;30.00;;;14.00;99.90;;;;;;5013335;28;20552;-76
2022/07/01 04:46:18;;;;;;;95.97;30.55;;;14.10;99.90;;;;;;5013709;28;20081;-74
2022/07/01 04:48:44;;;;;;;95.22;29.48;;;14.20;99.90;;;;;;5013198;28;20068;-74
2022/07/01 04:51:10;;;;;;;94.28;30.40;;;14.10;99.90;;;;;;4995769;28;20046;-74
2022/07/01 04:53:35;;;;;;;98.55;32.60;;;14.10;99.90;;;;;;4995534;28;20038;-75
2022/07/01 04:56:01;;;;;;;90.95;30.17;;;14.10;99.90;;;;;;4995736;28;20048;-75
2022/07/01 04:58:27;;;;;;;94.05;30.95;;;14.10;99.90;;;;;;4995670;28;20632;-80
2022/07/01 05:00:52;;;;;;;93.18;31.10;;;14.20;99.90;;;;;;4980248;28;20041;-74
2022/07/01 05:03:18;;;;;;;101.70;32.05;;;14.10;99.90;;;;;;4995814;28;20068;-75
2022/07/01 05:05:44;;;;;;;95.75;32.00;;;14.20;99.90;;;;;;4996072;28;20053;-77
2022/07/01 05:08:10;;;;;;;88.05;27.20;;;14.10;99.90;;;;;;5012966;28;20046;-75
2022/07/01 05:10:36;;;;;;;93.53;28.65;;;14.10;99.90;;;;;;4995276;28;20474;-74
2022/07/01 05:13:02;;;;;;;94.38;30.98;;;14.20;99.90;;;;;;4995219;28;20124;-75
2022/07/01 05:15:28;;;;;;;92.18;30.38;;;14.10;99.90;;;;;;5012945;28;20588;-74
2022/07/01 05:23:22;;;;;;;93.57;31.05;;;14.20;99.90;;;;;;5013067;28;20098;-74
2022/07/01 05:25:48;;;;;;;80.53;28.52;;;14.10;99.90;;;;;;4995213;28;20340;-74
2022/07/01 05:28:14;;;;;;;96.90;33.20;;;14.10;99.90;;;;;;4995579;28;20061;-74
2022/07/01 05:30:40;;;;;;;89.93;31.70;;;14.10;99.90;;;;;;4995104;28;20557;-73
2022/07/01 05:33:06;;;;;;;97.60;31.70;;;14.10;99.90;;;;;;5013097;28;20358;-74
2022/07/01 05:35:32;;;;;;;97.93;31.20;;;14.10;99.90;;;;;;5013272;28;20045;-75
2022/07/01 05:37:58;;;;;;;96.28;30.80;;;14.10;99.90;;;;;;4995134;28;20112;-75
2022/07/01 05:40:25;;;;;;;98.10;32.25;;;14.20;99.90;;;;;;5012815;28;20057;-75
2022/07/01 05:42:52;;;;;;;88.57;30.92;;;14.20;99.90;;;;;;5012911;28;20054;-75
2022/07/01 05:45:18;;;;;;;95.15;32.67;;;14.20;99.90;;;;;;5012232;28;20057;-76
2022/07/01 05:47:44;;;;;;;84.55;29.80;;;14.20;99.90;;;;;;5013199;28;20045;-75
2022/07/01 05:50:09;;;;;;;92.60;31.27;;;14.20;99.90;;;;;;4994968;28;20129;-76
2022/07/01 05:52:35;;;;;;;100.57;31.90;;;14.30;99.90;;;;;;5012573;28;20085;-76
2022/07/01 05:55:01;;;;;;;98.60;32.38;;;14.30;99.90;;;;;;5012985;28;20462;-75
2022/07/01 05:57:27;;;;;;;96.43;33.28;;;14.20;99.90;;;;;;4979073;28;20097;-77
2022/07/01 05:59:52;;;;;;;105.93;32.60;;;14.20;99.90;;;;;;4995567;28;20069;-76
2022/07/01 06:02:18;;;;;;;94.43;31.17;;;14.20;99.90;;;;;;4995756;28;20455;-76
2022/07/01 06:04:44;;;;;;;91.10;31.83;;;14.30;99.90;;;;;;4994876;28;20081;-76
2022/07/01 06:07:10;;;;;;;113.97;34.33;;;14.40;99.90;;;;;;4978944;28;20057;-76
2022/07/01 06:09:36;;;;;;;91.07;31.27;;;14.30;99.90;;;;;;4979339;28;20101;-75
2022/07/01 06:12:03;;;;;;;93.57;31.83;;;14.30;99.90;;;;;;4994924;28;20140;-75
2022/07/01 06:14:29;;;;;;;92.82;31.77;;;14.40;99.90;;;;;;4962683;28;20049;-75
2022/07/01 06:16:55;;;;;;;93.93;33.13;;;14.40;99.90;;;;;;5012412;28;20060;-75
2022/07/01 06:19:20;;;;;;;91.95;31.75;;;14.50;99.90;;;;;;4994795;28;20042;-75
2022/07/01 06:21:46;;;;;;;85.57;30.33;;;14.50;99.90;;;;;;5014198;28;20042;-75
2022/07/01 06:24:13;;;;;;;87.30;29.80;;;14.50;99.90;;;;;;5016720;28;20049;-75
2022/07/01 06:26:38;;;;;;;72.45;24.98;;;14.50;99.90;;;;;;4999302;28;20041;-74
2022/07/01 06:29:04;;;;;;;88.40;30.67;;;14.60;99.90;;;;;;5015868;28;20115;-74
2022/07/01 06:31:33;;;;;;;84.88;31.95;;;14.60;99.90;;;;;;5015865;28;20038;-74
2022/07/01 06:33:58;;;;;;;89.72;31.23;;;14.70;99.90;;;;;;4998866;28;20121;-75
2022/07/01 06:36:24;;;;;;;90.82;31.05;;;14.70;99.90;;;;;;4998260;28;20185;-76
2022/07/01 06:38:50;;;;;;;89.53;32.17;;;14.80;99.90;;;;;;4998436;28;20045;-77
2022/07/01 06:41:28;;;;;;;94.05;33.42;;;14.70;99.90;;;;;;4998396;28;20125;-78
2022/07/01 06:44:01;;;;;;;84.75;30.65;;;14.80;99.90;;;;;;4999536;28;20058;-77
2022/07/01 06:46:29;;;;;;;85.45;29.70;;;14.80;99.90;;;;;;5016206;28;20049;-78
2022/07/01 06:48:55;;;;;;;90.78;31.83;;;14.70;99.90;;;;;;4998696;28;20111;-77
2022/07/01 06:51:21;;;;;;;82.30;29.98;;;14.70;99.90;;;;;;5016957;28;20042;-76
2022/07/01 06:53:49;;;;;;;91.28;33.05;;;14.80;99.90;;;;;;5016446;28;20049;-76
2022/07/01 06:56:17;;;;;;;90.18;32.30;;;14.80;99.90;;;;;;5016686;28;20042;-78
2022/07/01 06:58:43;;;;;;;87.93;31.10;;;14.80;99.90;;;;;;4982252;28;20104;-78
2022/07/01 07:01:09;;;;;;;95.00;32.35;;;14.90;99.90;;;;;;5017237;28;20042;-76
2022/07/01 07:03:35;;;;;;;85.10;27.48;;;15.00;99.90;;;;;;5018224;28;20056;-76
2022/07/01 07:06:02;;;;;;;82.47;32.38;;;15.00;99.90;;;;;;5017543;28;20132;-79
2022/07/01 07:08:31;;;;;;;80.90;30.50;;;15.10;99.90;;;;;;4998673;28;20057;-77
2022/07/01 07:10:59;;;;;;;93.53;34.47;;;15.10;99.90;;;;;;5015930;28;20119;-76
2022/07/01 07:13:25;;;;;;;80.13;29.35;;;15.20;99.90;;;;;;5015461;28;20046;-81
2022/07/01 07:15:51;;;;;;;89.43;32.25;;;15.30;99.90;;;;;;5015131;28;20129;-75
2022/07/01 07:18:17;;;;;;;93.00;31.13;;;15.40;99.90;;;;;;5015205;28;20045;-76
2022/07/01 07:20:43;;;;;;;86.90;31.55;;;15.50;99.90;;;;;;5015610;28;20045;-77
2022/07/01 07:23:09;;;;;;;81.73;30.97;;;15.60;99.90;;;;;;5015075;28;20062;-76
2022/07/01 07:25:35;;;;;;;86.30;30.48;;;15.60;99.90;;;;;;4997745;28;20138;-77
2022/07/01 07:28:01;;;;;;;85.47;32.15;;;15.80;99.90;;;;;;4997515;28;20041;-78
2022/07/01 07:30:27;;;;;;;78.10;30.88;;;15.80;99.90;;;;;;4997487;28;20081;-76
2022/07/01 07:32:53;;;;;;;77.30;29.92;;;15.90;99.90;;;;;;5015343;28;20138;-77
2022/07/01 07:35:18;;;;;;;78.78;30.70;;;16.10;99.90;;;;;;4981266;28;20053;-80
2022/07/01 07:37:45;;;;;;;77.88;29.98;;;16.10;99.90;;;;;;5015396;28;20048;-76
2022/07/01 07:40:12;;;;;;;77.38;29.75;;;16.20;99.90;;;;;;5014406;28;20451;-76
2022/07/01 07:42:39;;;;;;;71.95;28.73;;;16.10;99.90;;;;;;4993485;28;20102;-78
2022/07/01 07:45:11;;;;;;;71.88;27.33;;;16.20;99.90;;;;;;4994872;28;20058;-79
2022/07/01 07:47:37;;;;;;;75.95;27.80;;;16.10;99.90;;;;;;4995029;28;20058;-77
2022/07/01 07:50:04;;;;;;;77.43;29.85;;;16.30;99.90;;;;;;4994531;28;20039;-76
2022/07/01 07:52:30;;;;;;;66.70;25.92;;;16.30;99.90;;;;;;4961570;28;20064;-79
2022/07/01 07:54:56;;;;;;;75.57;28.80;;;16.30;99.90;;;;;;4993330;28;20050;-78
2022/07/01 07:57:22;;;;;;;70.97;28.25;;;16.40;99.90;;;;;;4994505;28;20058;-77
2022/07/01 07:59:48;;;;;;;64.28;25.65;;;16.50;99.90;;;;;;4993654;28;20054;-77
2022/07/01 08:02:14;;;;;;;51.93;19.07;;;16.60;99.90;;;;;;4995067;28;20042;-77
2022/07/01 08:04:39;;;;;;;68.57;27.57;;;16.70;99.90;;;;;;4993983;28;20042;-79
2022/07/01 08:07:05;;;;;;;69.00;26.85;;;16.70;99.90;;;;;;4994792;28;20058;-76
2022/07/01 08:09:34;;;;;;;69.03;26.20;;;16.90;99.90;;;;;;4993398;28;20205;-76
2022/07/01 08:12:04;;;;;;;66.07;25.98;;;17.10;99.90;;;;;;4993270;28;20058;-80
2022/07/01 08:14:29;;;;;;;65.85;25.58;;;17.30;99.90;;;;;;4993231;28;20046;-79
2022/07/01 08:16:55;;;;;;;68.22;26.63;;;17.50;99.90;;;;;;4995262;28;20511;-81
2022/07/01 08:19:21;;;;;;;62.53;25.27;;;17.60;99.90;;;;;;4994347;28;20070;-77
2022/07/01 08:21:47;;;;;;;63.33;24.53;;;17.60;99.90;;;;;;4993515;28;20108;-78
2022/07/01 08:24:13;;;;;;;63.00;25.67;;;17.60;99.90;;;;;;4994819;28;20043;-79
2022/07/01 08:26:38;;;;;;;56.87;23.87;;;17.60;99.90;;;;;;4994313;28;20103;-78
2022/07/01 08:29:04;;;;;;;58.30;22.83;;;17.60;99.90;;;;;;4992990;28;20046;-80
2022/07/01 08:31:31;;;;;;;60.80;21.60;;;17.80;99.90;;;;;;4992974;28;20050;-78
2022/07/01 08:33:58;;;;;;;56.60;21.13;;;18.10;99.90;;;;;;4992821;28;20129;-79
2022/07/01 08:36:23;;;;;;;54.38;21.50;;;18.20;99.90;;;;;;4994363;28;20089;-77
2022/07/01 08:38:49;;;;;;;59.03;25.17;;;18.30;99.90;;;;;;4994371;28;20042;-79
2022/07/01 08:41:17;;;;;;;51.10;20.63;;;18.10;99.90;;;;;;4994182;28;20042;-78
2022/07/01 08:43:43;;;;;;;41.00;15.85;;;18.20;99.90;;;;;;5008844;28;20058;-79
2022/07/01 08:46:08;;;;;;;51.73;19.00;;;18.20;99.90;;;;;;4996281;28;20052;-80
2022/07/01 08:48:34;;;;;;;53.27;19.77;;;18.10;99.90;;;;;;5014322;28;20054;-78
2022/07/01 08:51:04;;;;;;;44.58;18.38;;;18.10;99.90;;;;;;4980470;28;20504;-80
2022/07/01 08:53:32;;;;;;;51.20;18.85;;;18.30;99.90;;;;;;5017784;28;20049;-79
2022/07/01 08:58:45;;;;;;;39.47;16.17;;;18.30;99.90;;;;;;5016381;28;20085;-80
2022/07/01 09:01:23;;;;;;;38.08;16.05;;;18.50;99.90;;;;;;4997984;28;20049;-80
2022/07/01 09:03:52;;;;;;;44.90;17.65;;;18.50;99.90;;;;;;4997728;28;20504;-79
2022/07/01 09:06:20;;;;;;;45.10;16.73;;;18.40;99.90;;;;;;5015737;28;20045;-79
2022/07/01 09:08:47;;;;;;;42.55;16.58;;;18.50;99.90;;;;;;5022147;28;20056;-79
2022/07/01 09:11:16;;;;;;;40.40;14.30;;;18.60;99.90;;;;;;5025110;28;20094;-80
2022/07/01 09:13:42;;;;;;;43.67;16.52;;;18.60;99.90;;;;;;5022203;28;20371;-81
2022/07/01 09:16:15;;;;;;;;;;;18.70;99.90;;;;;;5024164;28;20105;-81
2022/07/01 09:19:00;;;;;;;33.33;12.32;;;18.50;99.90;;;;;;5023732;28;19921;-79
2022/07/01 09:21:31;;;;;;;37.63;13.95;;;18.50;99.90;;;;;;5022603;28;20069;-80
2022/07/01 09:24:02;;;;;;;38.78;14.32;;;18.40;99.90;;;;;;5021033;28;20101;-80
2022/07/01 09:26:27;;;;;;;26.50;10.55;;;18.50;99.90;;;;;;5001400;28;20100;-80
2022/07/01 09:28:56;;;;;;;38.23;14.30;;;18.50;99.90;;;;;;5018185;28;20057;-78
2022/07/01 09:31:35;;;;;;;34.65;13.25;;;18.50;99.90;;;;;;5017112;28;20073;-78
2022/07/01 09:34:05;;;;;;;37.58;12.68;;;18.50;99.90;;;;;;4983837;28;20049;-79
2022/07/01 09:36:32;;;;;;;30.40;11.93;;;18.50;99.90;;;;;;4997314;28;20076;-79
2022/07/01 09:39:03;;;;;;;34.28;11.88;;;18.70;99.90;;;;;;5013405;28;20524;-81
2022/07/01 09:41:35;;;;;;;33.25;12.05;;;19.00;99.90;;;;;;4995510;28;20061;-80
2022/07/01 09:44:09;;;;;;;27.65;11.50;;;19.10;99.90;;;;;;4994759;28;20428;-79
2022/07/01 09:46:35;;;;;;;26.40;11.77;;;19.10;99.90;;;;;;5013054;28;20053;-81
2022/07/01 09:49:02;;;;;;;26.95;11.27;;;19.10;99.90;;;;;;4995154;28;20050;-80
2022/07/01 09:51:31;;;;;;;26.95;10.82;;;19.30;99.90;;;;;;4995552;28;20050;-80
2022/07/01 09:53:57;;;;;;;27.35;11.73;;;19.50;99.90;;;;;;5013370;28;20457;-81
2022/07/01 09:56:24;;;;;;;21.07;10.33;;;19.50;99.90;;;;;;4996843;28;20050;-82
2022/07/01 09:58:49;;;;;;;;;;;19.50;99.90;;;;;;4999795;28;20052;-81
2022/07/01 10:01:16;;;;;;;22.93;11.03;;;19.50;99.90;;;;;;5016940;28;19921;-80
2022/07/01 10:03:42;;;;;;;23.02;9.88;;;19.70;99.90;;;;;;5016626;28;20145;-78
2022/07/01 10:06:08;;;;;;;23.45;9.77;;;20.00;99.90;;;;;;4998837;28;20062;-80
2022/07/01 10:08:49;;;;;;;23.57;9.17;;;20.10;99.90;;;;;;5016786;28;20068;-79
2022/07/01 10:11:21;;;;;;;16.30;6.47;;;20.10;99.90;;;;;;5016964;28;20045;-78
2022/07/01 10:13:47;;;;;;;23.20;8.43;;;20.10;99.90;;;;;;4998917;28;20046;-80
2022/07/01 10:16:14;;;;;;;17.48;8.07;;;20.30;99.90;;;;;;4967351;28;20054;-78
2022/07/01 10:18:40;;;;;;;19.70;8.38;;;20.30;99.90;;;;;;4998901;28;20461;-79
2022/07/01 10:21:06;;;;;;;20.45;7.65;;;20.20;99.90;;;;;;5016489;28;20096;-77
2022/07/01 10:23:41;;;;;;;14.33;7.30;;;20.30;99.90;;;;;;4983418;28;20413;-77
2022/07/01 10:26:08;;;;;;;13.57;6.55;;;20.20;99.90;;;;;;5016561;28;20053;-77
2022/07/01 10:28:43;;;;;;;12.05;6.05;;;20.40;99.90;;;;;;5015584;28;20056;-75
2022/07/01 10:31:17;;;;;;;11.77;5.85;;;20.30;99.90;;;;;;4998295;28;20095;-76
2022/07/01 10:33:47;;;;;;;18.17;7.28;;;20.10;99.90;;;;;;5015981;28;20504;-76
2022/07/01 10:36:21;;;;;;;17.25;6.60;;;20.10;99.90;;;;;;5016080;28;20044;-77
2022/07/01 10:39:10;;;;;;;15.48;5.47;;;20.00;99.90;;;;;;5016609;28;20049;-78
2022/07/01 10:41:40;;;;;;;15.10;6.75;;;20.30;99.90;;;;;;4999112;28;20089;-77
2022/07/01 10:44:09;;;;;;;16.25;6.57;;;20.40;99.90;;;;;;4981777;28;20057;-76
2022/07/01 10:46:49;;;;;;;15.60;5.95;;;20.50;99.90;;;;;;4999080;28;20382;-77
2022/07/01 10:49:18;;;;;;;17.90;6.75;;;20.70;99.90;;;;;;5015866;28;20058;-76
2022/07/01 10:51:57;;;;;;;14.73;6.15;;;21.00;99.90;;;;;;5015356;28;20474;-77
2022/07/01 10:54:45;;;;;;;15.50;6.68;;;21.10;99.90;;;;;;5015444;28;20552;-77
2022/07/01 10:57:19;;;;;;;14.35;6.15;;;21.30;99.90;;;;;;5015626;28;20126;-78
2022/07/01 11:00:00;;;;;;;14.32;6.00;;;21.20;99.90;;;;;;5015511;28;20447;-77
2022/07/01 11:02:38;;;;;;;13.52;6.07;;;21.20;99.90;;;;;;4998052;28;20056;-76
2022/07/01 11:05:05;;;;;;;16.58;5.80;;;21.10;99.90;;;;;;5016109;28;20042;-76
2022/07/01 11:07:34;;;;;;;13.88;6.18;;;21.10;99.90;;;;;;4997531;28;20133;-80
2022/07/01 11:10:01;;;;;;;15.55;6.38;;;21.00;99.90;;;;;;4997715;28;20050;-80
2022/07/01 11:12:30;;;;;;;16.63;6.40;;;20.90;99.90;;;;;;5015079;28;20093;-77
2022/07/01 11:14:58;;;;;;;18.50;6.15;;;21.10;99.90;;;;;;5015158;28;20496;-77
2022/07/01 11:17:25;;;;;;;13.10;4.95;;;20.80;99.90;;;;;;5015924;28;20229;-79
2022/07/01 11:19:54;;;;;;;14.60;5.13;;;20.90;99.90;;;;;;5015480;28;20116;-77
2022/07/01 11:22:24;;;;;;;14.82;4.63;;;20.70;99.90;;;;;;5014952;28;20050;-77
2022/07/01 11:24:55;;;;;;;12.98;5.07;;;20.60;99.90;;;;;;5015067;28;20128;-78
2022/07/01 11:27:22;;;;;;;9.30;4.35;;;20.70;99.90;;;;;;5015044;28;20328;-78
2022/07/01 11:30:00;;;;;;;10.23;3.53;;;20.80;99.90;;;;;;5014480;28;20046;-76
2022/07/01 11:32:34;;;;;;;8.07;3.15;;;21.20;99.90;;;;;;4997900;28;20064;-75
2022/07/01 11:35:03;;;;;;;12.90;4.25;;;21.20;99.90;;;;;;5014739;28;20077;-77
2022/07/01 11:40:17;;;;;;;9.50;4.30;;;20.80;99.90;;;;;;4997095;28;20133;-76
2022/07/01 11:42:44;;;;;;;10.85;4.00;;;20.70;99.90;;;;;;5014434;28;20064;-77
2022/07/01 11:45:25;;;;;;;13.80;4.35;;;20.60;99.90;;;;;;4997081;28;20107;-80
2022/07/01 11:47:51;;;;;;;14.52;4.70;;;20.40;99.90;;;;;;5015296;28;20382;-81
2022/07/01 11:50:17;;;;;;;11.13;4.32;;;20.40;99.90;;;;;;5014410;28;20041;-81
2022/07/01 11:52:43;;;;;;;9.53;3.50;;;20.30;99.90;;;;;;4996894;28;20048;-81
2022/07/01 11:55:08;;;;;;;10.73;4.07;;;20.40;99.90;;;;;;4997171;28;20116;-79
2022/07/01 11:57:34;;;;;;;12.07;4.17;;;20.30;99.90;;;;;;5014563;28;20125;-80
2022/07/01 12:00:10;;;;;;;11.40;3.57;;;20.40;99.90;;;;;;4965467;28;20450;-77
2022/07/01 12:02:36;;;;;;;13.40;3.35;;;20.60;99.90;;;;;;5014959;28;20152;-78
2022/07/01 12:05:02;;;;;;;10.07;3.30;;;20.70;99.90;;;;;;5015478;28;20132;-79
2022/07/01 12:07:28;;;;;;;14.68;3.38;;;20.60;99.90;;;;;;5015806;28;20053;-78
2022/07/01 12:09:54;;;;;;;6.72;2.67;;;20.60;99.90;;;;;;4996768;28;20100;-78
2022/07/01 12:12:25;;;;;;;10.50;2.80;;;20.80;99.90;;;;;;5015010;28;20081;-77
2022/07/01 12:14:59;;;;;;;9.18;2.55;;;20.60;99.90;;;;;;5014459;28;20136;-79
2022/07/01 12:17:27;;;;;;;14.98;2.53;;;21.00;99.90;;;;;;5014170;28;20129;-77
2022/07/01 12:19:54;;;;;;;11.20;2.47;;;20.90;99.90;;;;;;5014080;28;20077;-79
2022/07/01 12:22:25;;;;;;;8.90;2.75;;;20.90;99.90;;;;;;5014079;28;20067;-77
2022/07/01 12:25:13;;;;;;;15.32;4.00;;;21.00;99.90;;;;;;4996346;28;20045;-78
2022/07/01 12:27:40;;;;;;;10.10;2.88;;;21.00;99.90;;;;;;5013624;28;20046;-79
2022/07/01 12:30:10;;;;;;;11.45;3.13;;;21.00;99.90;;;;;;5013777;28;20053;-77
2022/07/01 12:32:38;;;;;;;12.07;3.08;;;20.90;99.90;;;;;;5013434;28;20053;-79
2022/07/01 12:37:53;;;;;;;9.40;3.10;;;20.80;99.90;;;;;;4996603;28;20489;-79
2022/07/01 12:40:24;;;;;;;8.93;3.33;;;20.70;99.90;;;;;;4996019;28;20077;-77
2022/07/01 12:42:50;;;;;;;9.57;2.70;;;20.90;99.90;;;;;;5013866;28;20065;-79
2022/07/01 12:45:23;;;;;;;8.90;3.10;;;21.00;99.90;;;;;;4979913;28;20490;-78
2022/07/01 12:47:52;;;;;;;13.48;3.17;;;21.00;99.90;;;;;;5013758;28;20045;-78
2022/07/01 12:50:21;;;;;;;12.80;2.60;;;21.00;99.90;;;;;;5013104;28;20518;-78
2022/07/01 12:53:19;;;;;;;12.25;2.33;;;21.00;99.90;;;;;;4995460;28;20053;-78
2022/07/01 12:55:50;;;;;;;10.23;2.40;;;21.00;99.90;;;;;;5013678;28;20193;-78